sensor_id;sensor_type;location;lat;lon;timestamp;P1;durP1;ratioP1;P2;durP2;ratioP2
75104;SDS011;64778;47.314;8.466;2023-01-10T00:00:54;0.50;;;0.30;;
75104;SDS011;64778;47.314;8.466;2023-01-10T00:03:22;2.05;;;0.47;;
75104;SDS011;64778;47.314;8.466;2023-01-10T00:05:50;1.50;;;0.30;;
75104;SDS011;64778;47.314;8.466;2023-01-10T00:10:41;1.05;;;0.30;;
75104;SDS011;64778;47.314;8.466;2023-01-10T00:13:12;0.50;;;0.30;;
75104;SDS011;64778;47.314;8.466;2023-01-10T00:15:48;0.40;;;0.40;;
75104;SDS011;64778;47.314;8.466;2023-01-10T00:18:17;0.35;;;0.30;;
75104;SDS011;64778;47.314;8.466;2023-01-10T00:23:15;1.15;;;0.40;;
75104;SDS011;64778;47.314;8.466;2023-01-10T00:25:44;1.48;;;0.40;;
75104;SDS011;64778;47.314;8.466;2023-01-10T00:30:45;2.88;;;0.50;;
75104;SDS011;64778;47.314;8.466;2023-01-10T00:33:25;0.95;;;0.60;;
75104;SDS011;64778;47.314;8.466;2023-01-10T00:35:51;1.52;;;0.40;;
75104;SDS011;64778;47.314;8.466;2023-01-10T00:40:42;2.58;;;0.63;;
75104;SDS011;64778;47.314;8.466;2023-01-10T00:43:12;3.10;;;0.60;;
75104;SDS011;64778;47.314;8.466;2023-01-10T00:45:59;0.82;;;0.40;;
75104;SDS011;64778;47.314;8.466;2023-01-10T00:48:26;1.08;;;0.50;;
75104;SDS011;64778;47.314;8.466;2023-01-10T00:50:55;1.15;;;0.52;;
75104;SDS011;64778;47.314;8.466;2023-01-10T00:55:46;2.22;;;0.60;;
75104;SDS011;64778;47.314;8.466;2023-01-10T01:00:38;0.90;;;0.50;;
75104;SDS011;64778;47.314;8.466;2023-01-10T01:03:06;2.05;;;1.13;;
75104;SDS011;64778;47.314;8.466;2023-01-10T01:05:44;3.22;;;0.65;;
75104;SDS011;64778;47.314;8.466;2023-01-10T01:08:11;1.88;;;0.32;;
75104;SDS011;64778;47.314;8.466;2023-01-10T01:10:37;1.35;;;0.60;;
75104;SDS011;64778;47.314;8.466;2023-01-10T01:15:33;1.48;;;0.40;;
75104;SDS011;64778;47.314;8.466;2023-01-10T01:17:59;1.35;;;0.40;;
75104;SDS011;64778;47.314;8.466;2023-01-10T01:20:28;1.90;;;0.63;;
75104;SDS011;64778;47.314;8.466;2023-01-10T01:22:56;1.05;;;0.50;;
75104;SDS011;64778;47.314;8.466;2023-01-10T01:27:48;4.88;;;0.60;;
75104;SDS011;64778;47.314;8.466;2023-01-10T01:32:42;2.10;;;0.45;;
75104;SDS011;64778;47.314;8.466;2023-01-10T01:35:09;1.67;;;0.50;;
75104;SDS011;64778;47.314;8.466;2023-01-10T01:37:36;2.55;;;0.45;;
75104;SDS011;64778;47.314;8.466;2023-01-10T01:42:29;1.08;;;0.30;;
75104;SDS011;64778;47.314;8.466;2023-01-10T01:55:12;2.10;;;0.40;;
75104;SDS011;64778;47.314;8.466;2023-01-10T01:57:38;3.72;;;0.70;;
75104;SDS011;64778;47.314;8.466;2023-01-10T02:00:04;4.30;;;0.70;;
75104;SDS011;64778;47.314;8.466;2023-01-10T02:02:32;4.38;;;0.90;;
75104;SDS011;64778;47.314;8.466;2023-01-10T02:05:04;3.75;;;1.00;;
75104;SDS011;64778;47.314;8.466;2023-01-10T02:07:36;3.42;;;0.70;;
75104;SDS011;64778;47.314;8.466;2023-01-10T02:10:12;4.88;;;0.90;;
75104;SDS011;64778;47.314;8.466;2023-01-10T02:12:41;5.53;;;0.93;;
75104;SDS011;64778;47.314;8.466;2023-01-10T02:15:12;6.15;;;0.90;;
75104;SDS011;64778;47.314;8.466;2023-01-10T02:17:42;4.07;;;1.05;;
75104;SDS011;64778;47.314;8.466;2023-01-10T02:20:14;3.93;;;1.17;;
75104;SDS011;64778;47.314;8.466;2023-01-10T02:28:29;5.85;;;1.10;;
75104;SDS011;64778;47.314;8.466;2023-01-10T02:37:39;4.18;;;1.00;;
75104;SDS011;64778;47.314;8.466;2023-01-10T02:40:13;6.30;;;0.88;;
75104;SDS011;64778;47.314;8.466;2023-01-10T02:42:54;4.30;;;0.80;;
75104;SDS011;64778;47.314;8.466;2023-01-10T02:45:51;4.30;;;1.00;;
75104;SDS011;64778;47.314;8.466;2023-01-10T02:48:31;6.88;;;1.20;;
75104;SDS011;64778;47.314;8.466;2023-01-10T02:50:58;5.90;;;1.33;;
75104;SDS011;64778;47.314;8.466;2023-01-10T02:53:38;7.72;;;1.50;;
75104;SDS011;64778;47.314;8.466;2023-01-10T03:01:16;7.18;;;1.25;;
75104;SDS011;64778;47.314;8.466;2023-01-10T03:06:39;8.15;;;1.40;;
75104;SDS011;64778;47.314;8.466;2023-01-10T03:09:30;6.38;;;1.02;;
75104;SDS011;64778;47.314;8.466;2023-01-10T03:12:13;4.38;;;0.70;;
75104;SDS011;64778;47.314;8.466;2023-01-10T03:15:03;8.30;;;1.15;;
75104;SDS011;64778;47.314;8.466;2023-01-10T03:17:30;4.93;;;1.17;;
75104;SDS011;64778;47.314;8.466;2023-01-10T03:20:00;5.57;;;1.02;;
75104;SDS011;64778;47.314;8.466;2023-01-10T03:22:29;6.77;;;1.50;;
75104;SDS011;64778;47.314;8.466;2023-01-10T03:25:01;7.10;;;1.10;;
75104;SDS011;64778;47.314;8.466;2023-01-10T03:33:13;7.38;;;1.10;;
75104;SDS011;64778;47.314;8.466;2023-01-10T03:38:56;7.60;;;1.35;;
75104;SDS011;64778;47.314;8.466;2023-01-10T03:43:55;8.63;;;1.00;;
75104;SDS011;64778;47.314;8.466;2023-01-10T03:50:34;7.10;;;1.10;;
75104;SDS011;64778;47.314;8.466;2023-01-10T03:52:48;5.47;;;1.20;;
75104;SDS011;64778;47.314;8.466;2023-01-10T03:55:15;5.77;;;1.13;;
75104;SDS011;64778;47.314;8.466;2023-01-10T03:57:46;6.53;;;1.42;;
75104;SDS011;64778;47.314;8.466;2023-01-10T04:00:15;5.35;;;1.13;;
75104;SDS011;64778;47.314;8.466;2023-01-10T04:02:43;5.45;;;1.08;;
75104;SDS011;64778;47.314;8.466;2023-01-10T04:05:09;8.70;;;1.38;;
75104;SDS011;64778;47.314;8.466;2023-01-10T04:07:36;5.63;;;1.10;;
75104;SDS011;64778;47.314;8.466;2023-01-10T04:10:04;7.18;;;1.15;;
75104;SDS011;64778;47.314;8.466;2023-01-10T04:12:30;4.85;;;1.15;;
75104;SDS011;64778;47.314;8.466;2023-01-10T04:14:56;4.30;;;1.00;;
75104;SDS011;64778;47.314;8.466;2023-01-10T04:17:21;8.37;;;1.00;;
75104;SDS011;64778;47.314;8.466;2023-01-10T04:19:47;6.07;;;0.97;;
75104;SDS011;64778;47.314;8.466;2023-01-10T04:22:13;4.95;;;0.88;;
75104;SDS011;64778;47.314;8.466;2023-01-10T04:24:41;4.32;;;1.00;;
75104;SDS011;64778;47.314;8.466;2023-01-10T04:27:10;4.07;;;1.00;;
75104;SDS011;64778;47.314;8.466;2023-01-10T04:29:38;4.93;;;1.00;;
75104;SDS011;64778;47.314;8.466;2023-01-10T04:32:04;6.17;;;1.10;;
75104;SDS011;64778;47.314;8.466;2023-01-10T04:34:32;5.10;;;1.00;;
75104;SDS011;64778;47.314;8.466;2023-01-10T04:36:58;7.32;;;1.33;;
75104;SDS011;64778;47.314;8.466;2023-01-10T04:39:23;6.47;;;1.10;;
75104;SDS011;64778;47.314;8.466;2023-01-10T04:41:49;5.25;;;1.13;;
75104;SDS011;64778;47.314;8.466;2023-01-10T04:44:15;7.20;;;1.10;;
75104;SDS011;64778;47.314;8.466;2023-01-10T04:46:40;5.50;;;1.03;;
75104;SDS011;64778;47.314;8.466;2023-01-10T04:49:07;6.82;;;1.33;;
75104;SDS011;64778;47.314;8.466;2023-01-10T04:51:33;6.15;;;1.10;;
75104;SDS011;64778;47.314;8.466;2023-01-10T04:53:59;5.07;;;1.10;;
75104;SDS011;64778;47.314;8.466;2023-01-10T04:56:25;7.80;;;1.23;;
75104;SDS011;64778;47.314;8.466;2023-01-10T04:58:50;5.65;;;1.02;;
75104;SDS011;64778;47.314;8.466;2023-01-10T05:01:23;7.30;;;1.20;;
75104;SDS011;64778;47.314;8.466;2023-01-10T05:03:50;6.72;;;1.00;;
75104;SDS011;64778;47.314;8.466;2023-01-10T05:06:19;5.85;;;1.00;;
75104;SDS011;64778;47.314;8.466;2023-01-10T05:08:48;6.97;;;0.98;;
75104;SDS011;64778;47.314;8.466;2023-01-10T05:11:16;4.70;;;0.93;;
75104;SDS011;64778;47.314;8.466;2023-01-10T05:13:42;4.20;;;1.00;;
75104;SDS011;64778;47.314;8.466;2023-01-10T05:16:07;5.68;;;1.10;;
75104;SDS011;64778;47.314;8.466;2023-01-10T05:18:35;4.57;;;1.00;;
75104;SDS011;64778;47.314;8.466;2023-01-10T05:21:07;5.53;;;1.10;;
75104;SDS011;64778;47.314;8.466;2023-01-10T05:23:34;5.93;;;1.25;;
75104;SDS011;64778;47.314;8.466;2023-01-10T05:26:04;4.70;;;1.00;;
75104;SDS011;64778;47.314;8.466;2023-01-10T05:28:37;6.68;;;1.70;;
75104;SDS011;64778;47.314;8.466;2023-01-10T05:31:06;5.35;;;1.10;;
75104;SDS011;64778;47.314;8.466;2023-01-10T05:33:35;6.45;;;1.20;;
75104;SDS011;64778;47.314;8.466;2023-01-10T05:36:04;6.38;;;1.25;;
75104;SDS011;64778;47.314;8.466;2023-01-10T05:38:31;4.32;;;1.45;;
75104;SDS011;64778;47.314;8.466;2023-01-10T05:40:59;6.10;;;1.00;;
75104;SDS011;64778;47.314;8.466;2023-01-10T05:43:25;5.88;;;1.20;;
75104;SDS011;64778;47.314;8.466;2023-01-10T05:45:52;4.22;;;0.90;;
75104;SDS011;64778;47.314;8.466;2023-01-10T05:48:17;4.50;;;1.07;;
75104;SDS011;64778;47.314;8.466;2023-01-10T05:50:47;5.63;;;1.15;;
75104;SDS011;64778;47.314;8.466;2023-01-10T05:53:14;5.25;;;0.85;;
75104;SDS011;64778;47.314;8.466;2023-01-10T05:55:40;4.60;;;1.20;;
75104;SDS011;64778;47.314;8.466;2023-01-10T05:58:08;8.00;;;1.00;;
75104;SDS011;64778;47.314;8.466;2023-01-10T06:00:35;5.10;;;1.15;;
75104;SDS011;64778;47.314;8.466;2023-01-10T06:03:02;6.00;;;1.13;;
75104;SDS011;64778;47.314;8.466;2023-01-10T06:05:27;6.22;;;1.00;;
75104;SDS011;64778;47.314;8.466;2023-01-10T06:07:55;3.80;;;1.00;;
75104;SDS011;64778;47.314;8.466;2023-01-10T06:10:21;6.35;;;1.20;;
75104;SDS011;64778;47.314;8.466;2023-01-10T06:12:46;4.67;;;1.00;;
75104;SDS011;64778;47.314;8.466;2023-01-10T06:15:13;6.53;;;1.38;;
75104;SDS011;64778;47.314;8.466;2023-01-10T06:17:42;4.72;;;1.05;;
75104;SDS011;64778;47.314;8.466;2023-01-10T06:20:12;5.07;;;0.90;;
75104;SDS011;64778;47.314;8.466;2023-01-10T06:22:41;3.53;;;0.80;;
75104;SDS011;64778;47.314;8.466;2023-01-10T06:25:08;6.70;;;1.08;;
75104;SDS011;64778;47.314;8.466;2023-01-10T06:27:40;5.35;;;1.00;;
75104;SDS011;64778;47.314;8.466;2023-01-10T06:30:07;7.00;;;1.03;;
75104;SDS011;64778;47.314;8.466;2023-01-10T06:32:34;5.20;;;0.93;;
75104;SDS011;64778;47.314;8.466;2023-01-10T06:35:03;4.50;;;1.30;;
75104;SDS011;64778;47.314;8.466;2023-01-10T06:37:29;4.47;;;0.80;;
75104;SDS011;64778;47.314;8.466;2023-01-10T06:39:59;3.20;;;0.90;;
75104;SDS011;64778;47.314;8.466;2023-01-10T06:42:25;3.53;;;1.10;;
75104;SDS011;64778;47.314;8.466;2023-01-10T06:44:51;5.23;;;0.80;;
75104;SDS011;64778;47.314;8.466;2023-01-10T06:47:16;5.18;;;1.00;;
75104;SDS011;64778;47.314;8.466;2023-01-10T06:49:42;3.05;;;0.90;;
75104;SDS011;64778;47.314;8.466;2023-01-10T06:52:08;5.60;;;1.30;;
75104;SDS011;64778;47.314;8.466;2023-01-10T06:54:33;4.67;;;1.40;;
75104;SDS011;64778;47.314;8.466;2023-01-10T06:56:59;4.03;;;1.00;;
75104;SDS011;64778;47.314;8.466;2023-01-10T06:59:24;5.75;;;1.08;;
75104;SDS011;64778;47.314;8.466;2023-01-10T07:01:50;6.90;;;1.43;;
75104;SDS011;64778;47.314;8.466;2023-01-10T07:04:16;4.67;;;0.90;;
75104;SDS011;64778;47.314;8.466;2023-01-10T07:06:43;5.60;;;1.05;;
75104;SDS011;64778;47.314;8.466;2023-01-10T07:09:09;4.70;;;0.80;;
75104;SDS011;64778;47.314;8.466;2023-01-10T07:11:35;4.87;;;1.17;;
75104;SDS011;64778;47.314;8.466;2023-01-10T07:14:00;5.00;;;1.00;;
75104;SDS011;64778;47.314;8.466;2023-01-10T07:16:28;4.22;;;0.93;;
75104;SDS011;64778;47.314;8.466;2023-01-10T07:18:58;3.63;;;0.77;;
75104;SDS011;64778;47.314;8.466;2023-01-10T07:21:26;3.78;;;1.00;;
75104;SDS011;64778;47.314;8.466;2023-01-10T07:23:52;5.77;;;1.13;;
75104;SDS011;64778;47.314;8.466;2023-01-10T07:26:20;4.07;;;0.90;;
75104;SDS011;64778;47.314;8.466;2023-01-10T07:28:48;5.05;;;0.85;;
75104;SDS011;64778;47.314;8.466;2023-01-10T07:31:15;3.30;;;1.23;;
75104;SDS011;64778;47.314;8.466;2023-01-10T07:33:41;5.13;;;1.20;;
75104;SDS011;64778;47.314;8.466;2023-01-10T07:36:09;3.47;;;0.90;;
75104;SDS011;64778;47.314;8.466;2023-01-10T07:38:37;4.35;;;1.17;;
75104;SDS011;64778;47.314;8.466;2023-01-10T07:41:03;5.07;;;1.10;;
75104;SDS011;64778;47.314;8.466;2023-01-10T07:43:30;4.38;;;1.10;;
75104;SDS011;64778;47.314;8.466;2023-01-10T07:46:01;4.50;;;1.20;;
75104;SDS011;64778;47.314;8.466;2023-01-10T07:48:32;5.03;;;1.30;;
75104;SDS011;64778;47.314;8.466;2023-01-10T07:51:00;3.45;;;1.00;;
75104;SDS011;64778;47.314;8.466;2023-01-10T07:53:29;4.13;;;0.80;;
75104;SDS011;64778;47.314;8.466;2023-01-10T07:55:58;5.00;;;0.90;;
75104;SDS011;64778;47.314;8.466;2023-01-10T07:58:25;4.80;;;0.90;;
75104;SDS011;64778;47.314;8.466;2023-01-10T08:01:00;3.75;;;1.00;;
75104;SDS011;64778;47.314;8.466;2023-01-10T08:03:30;4.43;;;0.90;;
75104;SDS011;64778;47.314;8.466;2023-01-10T08:06:01;5.90;;;0.83;;
75104;SDS011;64778;47.314;8.466;2023-01-10T08:08:29;3.95;;;0.90;;
75104;SDS011;64778;47.314;8.466;2023-01-10T08:10:56;3.38;;;0.82;;
75104;SDS011;64778;47.314;8.466;2023-01-10T08:13:23;4.13;;;0.87;;
75104;SDS011;64778;47.314;8.466;2023-01-10T08:15:49;3.63;;;0.90;;
75104;SDS011;64778;47.314;8.466;2023-01-10T08:18:18;2.67;;;0.82;;
75104;SDS011;64778;47.314;8.466;2023-01-10T08:20:45;3.03;;;0.88;;
75104;SDS011;64778;47.314;8.466;2023-01-10T08:23:12;5.63;;;1.20;;
75104;SDS011;64778;47.314;8.466;2023-01-10T08:25:38;9.73;;;2.78;;
75104;SDS011;64778;47.314;8.466;2023-01-10T08:28:04;3.33;;;0.98;;
75104;SDS011;64778;47.314;8.466;2023-01-10T08:30:30;4.10;;;0.98;;
75104;SDS011;64778;47.314;8.466;2023-01-10T08:32:56;3.35;;;0.90;;
75104;SDS011;64778;47.314;8.466;2023-01-10T08:35:22;4.15;;;1.02;;
75104;SDS011;64778;47.314;8.466;2023-01-10T08:37:47;2.73;;;0.70;;
75104;SDS011;64778;47.314;8.466;2023-01-10T08:40:13;3.40;;;0.93;;
75104;SDS011;64778;47.314;8.466;2023-01-10T08:42:39;3.42;;;1.05;;
75104;SDS011;64778;47.314;8.466;2023-01-10T08:45:09;3.00;;;0.90;;
75104;SDS011;64778;47.314;8.466;2023-01-10T08:47:35;3.53;;;0.90;;
75104;SDS011;64778;47.314;8.466;2023-01-10T08:50:01;5.20;;;0.93;;
75104;SDS011;64778;47.314;8.466;2023-01-10T08:52:26;6.57;;;1.30;;
75104;SDS011;64778;47.314;8.466;2023-01-10T08:54:52;2.95;;;0.90;;
75104;SDS011;64778;47.314;8.466;2023-01-10T08:57:18;4.75;;;1.00;;
75104;SDS011;64778;47.314;8.466;2023-01-10T08:59:43;3.13;;;0.90;;
75104;SDS011;64778;47.314;8.466;2023-01-10T09:02:12;3.53;;;1.00;;
75104;SDS011;64778;47.314;8.466;2023-01-10T09:04:38;4.70;;;1.00;;
75104;SDS011;64778;47.314;8.466;2023-01-10T09:07:03;4.50;;;1.20;;
75104;SDS011;64778;47.314;8.466;2023-01-10T09:09:32;5.65;;;1.30;;
75104;SDS011;64778;47.314;8.466;2023-01-10T09:11:57;6.70;;;1.20;;
75104;SDS011;64778;47.314;8.466;2023-01-10T09:14:23;3.23;;;0.90;;
75104;SDS011;64778;47.314;8.466;2023-01-10T09:16:49;5.93;;;1.20;;
75104;SDS011;64778;47.314;8.466;2023-01-10T09:19:17;4.25;;;1.08;;
75104;SDS011;64778;47.314;8.466;2023-01-10T09:21:43;3.42;;;1.02;;
75104;SDS011;64778;47.314;8.466;2023-01-10T09:24:11;4.60;;;1.02;;
75104;SDS011;64778;47.314;8.466;2023-01-10T09:26:37;4.25;;;0.90;;
75104;SDS011;64778;47.314;8.466;2023-01-10T09:29:05;3.87;;;0.90;;
75104;SDS011;64778;47.314;8.466;2023-01-10T09:31:33;2.97;;;0.93;;
75104;SDS011;64778;47.314;8.466;2023-01-10T09:33:59;3.23;;;0.90;;
75104;SDS011;64778;47.314;8.466;2023-01-10T09:36:27;3.13;;;0.85;;
75104;SDS011;64778;47.314;8.466;2023-01-10T09:38:52;3.83;;;0.93;;
75104;SDS011;64778;47.314;8.466;2023-01-10T09:44:20;4.07;;;0.70;;
75104;SDS011;64778;47.314;8.466;2023-01-10T09:52:04;4.10;;;0.68;;
75104;SDS011;64778;47.314;8.466;2023-01-10T09:54:43;4.75;;;0.60;;
75104;SDS011;64778;47.314;8.466;2023-01-10T09:57:12;2.63;;;0.50;;
75104;SDS011;64778;47.314;8.466;2023-01-10T09:59:45;2.00;;;0.70;;
75104;SDS011;64778;47.314;8.466;2023-01-10T10:02:33;2.08;;;0.52;;
75104;SDS011;64778;47.314;8.466;2023-01-10T10:05:23;2.47;;;0.80;;
75104;SDS011;64778;47.314;8.466;2023-01-10T10:07:52;4.38;;;0.82;;
75104;SDS011;64778;47.314;8.466;2023-01-10T10:10:24;4.20;;;0.70;;
75104;SDS011;64778;47.314;8.466;2023-01-10T10:21:00;1.85;;;0.57;;
75104;SDS011;64778;47.314;8.466;2023-01-10T10:26:03;3.58;;;0.60;;
75104;SDS011;64778;47.314;8.466;2023-01-10T10:36:40;2.72;;;0.45;;
75104;SDS011;64778;47.314;8.466;2023-01-10T10:39:15;3.10;;;0.70;;
75104;SDS011;64778;47.314;8.466;2023-01-10T10:42:03;2.65;;;0.70;;
75104;SDS011;64778;47.314;8.466;2023-01-10T10:44:38;3.63;;;0.47;;
75104;SDS011;64778;47.314;8.466;2023-01-10T10:47:14;3.30;;;0.73;;
75104;SDS011;64778;47.314;8.466;2023-01-10T10:52:13;4.15;;;0.55;;
75104;SDS011;64778;47.314;8.466;2023-01-10T10:54:51;5.47;;;1.10;;
75104;SDS011;64778;47.314;8.466;2023-01-10T10:57:17;5.28;;;0.70;;
75104;SDS011;64778;47.314;8.466;2023-01-10T10:59:46;3.40;;;0.70;;
75104;SDS011;64778;47.314;8.466;2023-01-10T11:02:20;3.90;;;0.80;;
75104;SDS011;64778;47.314;8.466;2023-01-10T11:04:55;2.95;;;0.60;;
75104;SDS011;64778;47.314;8.466;2023-01-10T11:07:27;2.33;;;0.68;;
75104;SDS011;64778;47.314;8.466;2023-01-10T11:10:03;5.57;;;1.00;;
75104;SDS011;64778;47.314;8.466;2023-01-10T11:13:15;2.20;;;0.73;;
75104;SDS011;64778;47.314;8.466;2023-01-10T11:15:57;2.55;;;0.50;;
75104;SDS011;64778;47.314;8.466;2023-01-10T11:18:28;2.40;;;0.77;;
75104;SDS011;64778;47.314;8.466;2023-01-10T11:20:58;3.53;;;0.70;;
75104;SDS011;64778;47.314;8.466;2023-01-10T11:28:49;3.22;;;0.60;;
75104;SDS011;64778;47.314;8.466;2023-01-10T11:31:26;1.88;;;0.70;;
75104;SDS011;64778;47.314;8.466;2023-01-10T11:33:56;1.98;;;0.60;;
75104;SDS011;64778;47.314;8.466;2023-01-10T11:36:23;6.63;;;0.88;;
75104;SDS011;64778;47.314;8.466;2023-01-10T11:38:58;3.38;;;0.75;;
75104;SDS011;64778;47.314;8.466;2023-01-10T11:41:30;5.07;;;0.60;;
75104;SDS011;64778;47.314;8.466;2023-01-10T11:44:19;4.00;;;0.73;;
75104;SDS011;64778;47.314;8.466;2023-01-10T11:46:48;10.43;;;1.15;;
75104;SDS011;64778;47.314;8.466;2023-01-10T11:49:29;3.15;;;1.25;;
75104;SDS011;64778;47.314;8.466;2023-01-10T11:52:01;1.50;;;0.57;;
75104;SDS011;64778;47.314;8.466;2023-01-10T11:54:33;3.60;;;0.60;;
75104;SDS011;64778;47.314;8.466;2023-01-10T12:04:51;3.13;;;0.60;;
75104;SDS011;64778;47.314;8.466;2023-01-10T12:07:18;2.17;;;0.50;;
75104;SDS011;64778;47.314;8.466;2023-01-10T12:12:21;3.70;;;1.00;;
75104;SDS011;64778;47.314;8.466;2023-01-10T12:14:52;3.45;;;0.85;;
75104;SDS011;64778;47.314;8.466;2023-01-10T12:17:23;2.25;;;0.80;;
75104;SDS011;64778;47.314;8.466;2023-01-10T12:19:54;1.80;;;0.52;;
75104;SDS011;64778;47.314;8.466;2023-01-10T12:22:38;2.17;;;0.40;;
75104;SDS011;64778;47.314;8.466;2023-01-10T12:27:46;4.55;;;0.77;;
75104;SDS011;64778;47.314;8.466;2023-01-10T12:30:38;2.20;;;0.60;;
75104;SDS011;64778;47.314;8.466;2023-01-10T12:33:15;4.75;;;0.95;;
75104;SDS011;64778;47.314;8.466;2023-01-10T12:35:49;3.60;;;0.55;;
75104;SDS011;64778;47.314;8.466;2023-01-10T12:38:41;6.70;;;0.70;;
75104;SDS011;64778;47.314;8.466;2023-01-10T12:44:51;3.13;;;0.93;;
75104;SDS011;64778;47.314;8.466;2023-01-10T12:50:32;2.22;;;0.70;;
75104;SDS011;64778;47.314;8.466;2023-01-10T12:55:55;4.60;;;0.90;;
75104;SDS011;64778;47.314;8.466;2023-01-10T12:58:31;1.75;;;0.65;;
75104;SDS011;64778;47.314;8.466;2023-01-10T13:01:04;2.30;;;0.73;;
75104;SDS011;64778;47.314;8.466;2023-01-10T13:08:32;2.13;;;0.68;;
75104;SDS011;64778;47.314;8.466;2023-01-10T13:11:04;2.08;;;0.70;;
75104;SDS011;64778;47.314;8.466;2023-01-10T13:13:46;5.50;;;1.55;;
75104;SDS011;64778;47.314;8.466;2023-01-10T13:21:48;2.28;;;0.60;;
75104;SDS011;64778;47.314;8.466;2023-01-10T13:24:21;3.05;;;0.70;;
75104;SDS011;64778;47.314;8.466;2023-01-10T13:26:57;2.13;;;0.70;;
75104;SDS011;64778;47.314;8.466;2023-01-10T13:29:29;3.97;;;0.90;;
75104;SDS011;64778;47.314;8.466;2023-01-10T13:32:01;1.73;;;0.40;;
75104;SDS011;64778;47.314;8.466;2023-01-10T13:34:39;2.90;;;0.80;;
75104;SDS011;64778;47.314;8.466;2023-01-10T13:37:22;4.65;;;1.00;;
75104;SDS011;64778;47.314;8.466;2023-01-10T13:39:51;3.10;;;0.65;;
75104;SDS011;64778;47.314;8.466;2023-01-10T13:42:25;2.20;;;0.70;;
75104;SDS011;64778;47.314;8.466;2023-01-10T13:45:13;1.70;;;0.68;;
75104;SDS011;64778;47.314;8.466;2023-01-10T13:52:46;2.17;;;0.65;;
75104;SDS011;64778;47.314;8.466;2023-01-10T13:57:48;2.70;;;0.70;;
75104;SDS011;64778;47.314;8.466;2023-01-10T14:00:21;2.13;;;0.77;;
75104;SDS011;64778;47.314;8.466;2023-01-10T14:06:30;2.13;;;0.90;;
75104;SDS011;64778;47.314;8.466;2023-01-10T14:09:01;2.25;;;0.70;;
75104;SDS011;64778;47.314;8.466;2023-01-10T14:11:55;2.75;;;0.63;;
75104;SDS011;64778;47.314;8.466;2023-01-10T14:16:57;2.22;;;0.70;;
75104;SDS011;64778;47.314;8.466;2023-01-10T14:19:48;3.53;;;0.68;;
75104;SDS011;64778;47.314;8.466;2023-01-10T14:22:44;2.90;;;0.75;;
75104;SDS011;64778;47.314;8.466;2023-01-10T14:25:23;3.25;;;0.95;;
75104;SDS011;64778;47.314;8.466;2023-01-10T14:27:55;2.60;;;0.80;;
75104;SDS011;64778;47.314;8.466;2023-01-10T14:32:59;1.77;;;0.60;;
75104;SDS011;64778;47.314;8.466;2023-01-10T14:35:44;4.05;;;0.90;;
75104;SDS011;64778;47.314;8.466;2023-01-10T14:38:18;4.55;;;0.80;;
75104;SDS011;64778;47.314;8.466;2023-01-10T14:40:54;3.78;;;0.80;;
75104;SDS011;64778;47.314;8.466;2023-01-10T14:43:24;3.15;;;0.75;;
75104;SDS011;64778;47.314;8.466;2023-01-10T14:46:02;2.53;;;0.70;;
75104;SDS011;64778;47.314;8.466;2023-01-10T14:48:34;3.58;;;0.65;;
75104;SDS011;64778;47.314;8.466;2023-01-10T14:51:26;2.67;;;0.73;;
75104;SDS011;64778;47.314;8.466;2023-01-10T14:53:57;3.67;;;0.70;;
75104;SDS011;64778;47.314;8.466;2023-01-10T14:56:35;2.55;;;0.50;;
75104;SDS011;64778;47.314;8.466;2023-01-10T15:01:42;2.47;;;0.73;;
75104;SDS011;64778;47.314;8.466;2023-01-10T15:04:14;5.43;;;0.80;;
75104;SDS011;64778;47.314;8.466;2023-01-10T15:09:44;4.60;;;0.57;;
75104;SDS011;64778;47.314;8.466;2023-01-10T15:12:12;3.03;;;0.73;;
75104;SDS011;64778;47.314;8.466;2023-01-10T15:14:40;2.58;;;0.50;;
75104;SDS011;64778;47.314;8.466;2023-01-10T15:17:14;4.68;;;1.52;;
75104;SDS011;64778;47.314;8.466;2023-01-10T15:19:44;5.72;;;1.50;;
75104;SDS011;64778;47.314;8.466;2023-01-10T15:22:45;4.13;;;1.17;;
75104;SDS011;64778;47.314;8.466;2023-01-10T15:25:15;6.22;;;1.15;;
75104;SDS011;64778;47.314;8.466;2023-01-10T15:27:52;6.32;;;1.40;;
75104;SDS011;64778;47.314;8.466;2023-01-10T15:32:48;7.60;;;1.35;;
75104;SDS011;64778;47.314;8.466;2023-01-10T15:35:18;5.25;;;1.60;;
75104;SDS011;64778;47.314;8.466;2023-01-10T15:37:51;7.18;;;1.67;;
75104;SDS011;64778;47.314;8.466;2023-01-10T15:40:22;3.03;;;1.10;;
75104;SDS011;64778;47.314;8.466;2023-01-10T15:43:04;4.38;;;1.30;;
75104;SDS011;64778;47.314;8.466;2023-01-10T15:45:55;3.60;;;1.10;;
75104;SDS011;64778;47.314;8.466;2023-01-10T15:48:33;3.08;;;1.50;;
75104;SDS011;64778;47.314;8.466;2023-01-10T16:02:28;3.45;;;1.00;;
75104;SDS011;64778;47.314;8.466;2023-01-10T16:05:17;5.43;;;1.20;;
75104;SDS011;64778;47.314;8.466;2023-01-10T16:07:43;2.67;;;0.93;;
75104;SDS011;64778;47.314;8.466;2023-01-10T16:10:28;6.18;;;0.90;;
75104;SDS011;64778;47.314;8.466;2023-01-10T16:13:10;3.60;;;0.93;;
75104;SDS011;64778;47.314;8.466;2023-01-10T16:15:51;5.15;;;1.42;;
75104;SDS011;64778;47.314;8.466;2023-01-10T16:18:17;5.97;;;1.52;;
75104;SDS011;64778;47.314;8.466;2023-01-10T16:20:42;4.75;;;1.40;;
75104;SDS011;64778;47.314;8.466;2023-01-10T16:23:29;6.00;;;1.48;;
75104;SDS011;64778;47.314;8.466;2023-01-10T16:26:04;4.30;;;1.17;;
75104;SDS011;64778;47.314;8.466;2023-01-10T16:31:47;6.32;;;1.38;;
75104;SDS011;64778;47.314;8.466;2023-01-10T16:34:13;6.47;;;1.35;;
75104;SDS011;64778;47.314;8.466;2023-01-10T16:36:41;4.95;;;1.40;;
75104;SDS011;64778;47.314;8.466;2023-01-10T16:39:14;4.43;;;1.40;;
75104;SDS011;64778;47.314;8.466;2023-01-10T16:41:41;6.30;;;2.75;;
75104;SDS011;64778;47.314;8.466;2023-01-10T16:44:29;5.40;;;1.40;;
75104;SDS011;64778;47.314;8.466;2023-01-10T16:46:56;3.80;;;1.50;;
75104;SDS011;64778;47.314;8.466;2023-01-10T16:49:24;4.25;;;1.33;;
75104;SDS011;64778;47.314;8.466;2023-01-10T16:51:51;4.53;;;1.95;;
75104;SDS011;64778;47.314;8.466;2023-01-10T16:54:18;5.15;;;1.90;;
75104;SDS011;64778;47.314;8.466;2023-01-10T16:56:46;5.57;;;1.95;;
75104;SDS011;64778;47.314;8.466;2023-01-10T16:59:17;4.43;;;1.70;;
75104;SDS011;64778;47.314;8.466;2023-01-10T17:01:45;4.95;;;1.40;;
75104;SDS011;64778;47.314;8.466;2023-01-10T17:04:18;14.30;;;6.68;;
75104;SDS011;64778;47.314;8.466;2023-01-10T17:06:46;31.08;;;16.92;;
75104;SDS011;64778;47.314;8.466;2023-01-10T17:09:19;13.05;;;6.68;;
75104;SDS011;64778;47.314;8.466;2023-01-10T17:11:53;11.88;;;4.97;;
75104;SDS011;64778;47.314;8.466;2023-01-10T17:14:34;8.53;;;4.10;;
75104;SDS011;64778;47.314;8.466;2023-01-10T17:17:01;10.27;;;5.30;;
75104;SDS011;64778;47.314;8.466;2023-01-10T17:19:27;10.50;;;4.30;;
75104;SDS011;64778;47.314;8.466;2023-01-10T17:21:53;9.83;;;3.80;;
75104;SDS011;64778;47.314;8.466;2023-01-10T17:24:19;9.85;;;4.20;;
75104;SDS011;64778;47.314;8.466;2023-01-10T17:26:46;8.43;;;3.30;;
75104;SDS011;64778;47.314;8.466;2023-01-10T17:29:14;9.20;;;3.53;;
75104;SDS011;64778;47.314;8.466;2023-01-10T17:31:42;4.93;;;2.00;;
75104;SDS011;64778;47.314;8.466;2023-01-10T17:34:08;5.32;;;2.00;;
75104;SDS011;64778;47.314;8.466;2023-01-10T17:36:34;14.10;;;4.67;;
75104;SDS011;64778;47.314;8.466;2023-01-10T17:39:04;9.68;;;3.55;;
75104;SDS011;64778;47.314;8.466;2023-01-10T17:41:30;8.68;;;4.05;;
75104;SDS011;64778;47.314;8.466;2023-01-10T17:43:58;10.95;;;4.22;;
75104;SDS011;64778;47.314;8.466;2023-01-10T17:46:24;23.27;;;10.55;;
75104;SDS011;64778;47.314;8.466;2023-01-10T17:48:50;9.53;;;3.57;;
75104;SDS011;64778;47.314;8.466;2023-01-10T17:51:15;6.13;;;2.00;;
75104;SDS011;64778;47.314;8.466;2023-01-10T17:53:41;6.85;;;1.88;;
75104;SDS011;64778;47.314;8.466;2023-01-10T17:56:07;5.45;;;1.50;;
75104;SDS011;64778;47.314;8.466;2023-01-10T17:58:35;13.35;;;4.28;;
75104;SDS011;64778;47.314;8.466;2023-01-10T18:01:01;8.75;;;2.50;;
75104;SDS011;64778;47.314;8.466;2023-01-10T18:03:28;6.03;;;2.42;;
75104;SDS011;64778;47.314;8.466;2023-01-10T18:05:55;6.25;;;2.40;;